»·PEaware :: N172SP KSMX-KBFL

N172SP :: KSMX-KBFL

FLIGHT INFORMATION

Flight Status: Arrived
Operator: Privately registered:
United States
More flights under this callsign
Pilot: Brian D. (22974)
Aircraft: CESSNA 172 SKYHAWK
(C172)
More flights by this aircraft type
Origin: KSMX Santa Maria Pub/Capt Hancock
United States
Destination: KBFL Meadows
United States
More flights between these airports :: More routes between these airports
Route: DCT
File this flight plan on PilotEdge
Remarks: New Pilot CAT-05
Altitude:
(Current/Filed)
7,500ft
Speed:
(Current/Filed)
100kts
Departed: 12-Jan-19 09:17 AM
Arrived: 12-Jan-19 10:17 AM
Distance/Time
Traveled:
76nm/0:59
Distance/Time
To Go:
Arrived

Flight Plot

Page will automatically refresh every two minutes.


Map Options




Map Legend


Flown Route
Filed Route
Departure Airport
Arrival Airport
Navaid (VOR, NDB)
Fix

Horizontal Profiles

Position Reports

Time Latitude Longitude Heading Altitude Ground
Speed
12-Jan-19 08:59 34.901384 -120.450785 154 265ft 0kts
12-Jan-19 09:00 34.901384 -120.450785 154 265ft 0kts
12-Jan-19 09:01 34.901384 -120.450785 154 265ft 0kts
12-Jan-19 09:02 34.901384 -120.450785 154 265ft 0kts
12-Jan-19 09:03 34.901384 -120.450785 154 265ft 0kts
12-Jan-19 09:04 34.901384 -120.450785 154 265ft 0kts
12-Jan-19 09:05 34.901384 -120.450785 154 265ft 0kts
12-Jan-19 09:06 34.901384 -120.450785 154 265ft 0kts
12-Jan-19 09:07 34.901384 -120.450785 154 265ft 0kts
12-Jan-19 09:08 34.901384 -120.450785 154 265ft 0kts
12-Jan-19 09:09 34.901384 -120.450785 154 265ft 0kts
12-Jan-19 09:10 34.901284 -120.450741 169 265ft 4kts
12-Jan-19 09:11 34.898899 -120.450000 180 265ft 0kts
12-Jan-19 09:12 34.897980 -120.449500 135 265ft 15kts
12-Jan-19 09:13 34.894548 -120.445402 131 265ft 14kts
12-Jan-19 09:14 34.893183 -120.444955 180 265ft 0kts
12-Jan-19 09:15 34.892616 -120.445425 236 265ft 7kts
12-Jan-19 09:16 34.895536 -120.449126 314 290ft 70kts
12-Jan-19 09:17 34.909328 -120.466845 306 1444ft 73kts
12-Jan-19 09:18 34.922256 -120.486273 310 2543ft 75kts
12-Jan-19 09:19 34.938261 -120.481454 61 3570ft 76kts
12-Jan-19 09:20 34.940831 -120.456035 85 4542ft 77kts
12-Jan-19 09:21 34.942071 -120.429811 91 5458ft 78kts
12-Jan-19 09:22 34.940947 -120.403207 92 6320ft 79kts
12-Jan-19 09:23 34.940751 -120.376145 82 7137ft 80kts
12-Jan-19 09:24 34.946496 -120.345801 73 7499ft 105kts
12-Jan-19 09:25 34.956327 -120.313677 67 7500ft 101kts
12-Jan-19 09:26 34.967686 -120.282122 65 7500ft 102kts
12-Jan-19 09:27 34.979561 -120.250746 64 7499ft 102kts
12-Jan-19 09:28 34.991624 -120.219395 64 7499ft 102kts
12-Jan-19 09:29 35.003715 -120.188109 64 7499ft 102kts
12-Jan-19 09:30 35.015798 -120.156869 64 7499ft 102kts
12-Jan-19 09:31 35.027926 -120.125510 64 7499ft 102kts
12-Jan-19 09:32 35.040030 -120.094172 64 7499ft 102kts
12-Jan-19 09:33 35.052161 -120.062754 64 7499ft 102kts
12-Jan-19 09:34 35.064262 -120.031378 64 7499ft 102kts
12-Jan-19 09:35 35.076387 -119.999909 64 7499ft 102kts
12-Jan-19 09:36 35.088528 -119.968367 64 7499ft 102kts
12-Jan-19 09:37 35.100519 -119.937182 64 7499ft 102kts
12-Jan-19 09:38 35.112386 -119.906287 64 7499ft 102kts
12-Jan-19 09:39 35.124479 -119.874782 64 7499ft 102kts
12-Jan-19 09:40 35.136557 -119.843287 64 7499ft 102kts
12-Jan-19 09:41 35.148622 -119.811795 64 7499ft 102kts
12-Jan-19 09:42 35.160718 -119.780187 64 7499ft 102kts
12-Jan-19 09:43 35.172616 -119.749042 64 7498ft 95kts
12-Jan-19 09:44 35.182925 -119.722092 64 7499ft 82kts
12-Jan-19 09:45 35.192251 -119.697761 64 7499ft 76kts
12-Jan-19 09:46 35.201100 -119.674631 64 7499ft 73kts
12-Jan-19 09:47 35.209655 -119.652227 64 7499ft 71kts
12-Jan-19 09:48 35.217968 -119.630419 64 7499ft 70kts
12-Jan-19 09:49 35.226917 -119.606949 65 7418ft 84kts
12-Jan-19 09:50 35.236547 -119.581352 64 7417ft 81kts
12-Jan-19 09:51 35.245997 -119.556384 64 7417ft 80kts
12-Jan-19 09:52 35.255326 -119.531813 64 7417ft 79kts
12-Jan-19 09:53 35.264614 -119.507341 64 7417ft 79kts
12-Jan-19 09:54 35.273870 -119.482932 64 7417ft 79kts
12-Jan-19 09:55 35.283097 -119.458579 64 7417ft 79kts
12-Jan-19 09:56 35.292343 -119.434156 64 7417ft 79kts
12-Jan-19 09:57 35.303045 -119.407124 63 7419ft 103kts
12-Jan-19 09:58 35.315252 -119.376097 63 7417ft 97kts
12-Jan-19 09:59 35.326446 -119.347632 64 7102ft 97kts
12-Jan-19 10:00 35.338022 -119.318211 64 6780ft 96kts
12-Jan-19 10:01 35.349614 -119.288736 64 6415ft 96kts
12-Jan-19 10:02 35.361121 -119.259479 64 6054ft 95kts
12-Jan-19 10:03 35.372604 -119.230283 64 5650ft 94kts
12-Jan-19 10:04 35.384755 -119.202152 47 4909ft 93kts
12-Jan-19 10:05 35.396597 -119.174246 64 3917ft 92kts
12-Jan-19 10:06 35.407546 -119.146262 64 2949ft 91kts
12-Jan-19 10:07 35.418346 -119.118657 64 2002ft 90kts
12-Jan-19 10:08 35.427416 -119.093101 93 1416ft 70kts
12-Jan-19 10:09 35.414479 -119.072925 135 1417ft 79kts
12-Jan-19 10:10 35.399553 -119.053966 131 1417ft 76kts
12-Jan-19 10:11 35.387460 -119.033565 86 1415ft 75kts
12-Jan-19 10:12 35.401934 -119.017042 358 1415ft 75kts
12-Jan-19 10:13 35.414894 -119.033114 308 1106ft 63kts
12-Jan-19 10:14 35.425622 -119.046295 316 696ft 48kts
12-Jan-19 10:16 35.435267 -119.057980 313 523ft 49kts
12-Jan-19 10:17 35.439993 -119.062687 359 510ft 0kts
12-Jan-19 10:18 35.439993 -119.062687 359 510ft 0kts
12-Jan-19 10:19 35.439689 -119.061037 135 510ft 20kts
12-Jan-19 10:20 35.435161 -119.055563 136 510ft 23kts
12-Jan-19 10:21 35.430698 -119.050169 134 510ft 21kts
12-Jan-19 10:22 35.429446 -119.046603 138 510ft 6kts
12-Jan-19 10:23 35.429387 -119.046530 133 510ft 0kts
12-Jan-19 10:24 35.429387 -119.046530 133 510ft 0kts
12-Jan-19 10:25 35.429387 -119.046530 133 510ft 0kts
12-Jan-19 10:26 35.429387 -119.046530 133 510ft 0kts
12-Jan-19 10:27 35.429387 -119.046530 133 510ft 0kts
12-Jan-19 10:28 35.429387 -119.046530 133 510ft 0kts
12-Jan-19 10:29 35.429387 -119.046530 133 510ft 0kts
12-Jan-19 10:30 35.429387 -119.046530 133 510ft 0kts
12-Jan-19 10:31 35.429387 -119.046530 133 510ft 0kts

Navigation Log

Ident Type
Flight plan parsing failed, navigation log unavailable